Upper Black Eddy, Pennsylvania
Current Conditions -  °F | °C
As of 6:54 AM on Sunday 23 Nov 2014 (Local Time) from KDYL Reporting Station
Overcast Overcast  
Wind Chill: 38°   Ceiling: 9000
Heat Index: 38°   Visibility: 10mi
Dew Point: 23°   Wind: 0mph
Humidity: 55%   Direction: NA
Pressure: 30.19"   Gusts: NA
Location:  40.57°N, 75.1°W
Report Text: KDYL 231154Z AUTO 00000KT 10SM BKN090 OVC110 03/M05 A3019 RMK AO2 SLP229 T00331050 10044 20028 53005
Loading
Personal Weather Stations






























Interactive Weather Map New forecast layout! Learn more

10-Day Weather Forecast

Advertisements
Track Severe Weather on mobile